Time;durP1;ratioP1;P1;durP2;ratioP2;P2;SDS_P1;SDS_P2;PMS_P1;PMS_P2;Temp;Humidity;BMP_temperature;BMP_pressure;BME280_temperature;BME280_humidity;BME280_pressure;Samples;Min_cycle;Max_cycle;Signal;HPM_P1;HPM_P2
2022/10/04 00:02:45;;;;;;;;;;;;;;;9.41;81.58;101555.31;4936849;29;19925;-74
2022/10/04 00:05:54;;;;;;;;;;;;;;;9.32;81.37;101553.84;4936312;29;20009;-74
2022/10/04 00:09:10;;;;;;;;;;;;;;;9.34;81.06;101548.56;4935321;29;19970;-73
2022/10/04 00:12:23;;;;;;;;;;;;;;;9.27;81.25;101547.91;4935937;29;20218;-74
2022/10/04 00:15:28;;;;;;;;;;;;;;;9.17;82.12;101541.25;4935783;29;20025;-74
2022/10/04 00:18:40;;;;;;;;;;;;;;;9.45;81.12;101530.84;4928353;29;19942;-74
2022/10/04 00:21:53;;;;;;;;;;;;;;;9.37;81.00;101520.63;4916335;29;19933;-74
2022/10/04 00:25:06;;;;;;;;;;;;;;;9.22;81.97;101535.00;4917441;29;20302;-73
2022/10/04 00:28:16;;;;;;;;;;;;;;;9.26;81.98;101525.34;4917765;29;19922;-74
2022/10/04 00:31:23;;;;;;;;;;;;;;;9.22;82.42;101523.69;4917352;29;20291;-74
2022/10/04 00:34:26;;;;;;;;;;;;;;;9.10;83.04;101529.31;4917541;29;19970;-74
2022/10/04 00:37:49;;;;;;;;;;;;;;;9.19;82.46;101534.22;4917766;29;20311;-74
2022/10/04 00:41:05;;;;;;;;;;;;;;;9.22;81.69;101535.00;4917314;29;20041;-74
2022/10/04 00:44:14;;;;;;;;;;;;;;;9.24;81.61;101527.97;4916861;29;20489;-74
2022/10/04 00:47:30;;;;;;;;;;;;;;;9.10;82.08;101524.94;4916915;29;19969;-74
2022/10/04 00:50:55;;;;;;;;;;;;;;;9.01;82.43;101517.38;4916899;29;19934;-73
2022/10/04 00:54:19;;;;;;;;;;;;;;;9.13;81.42;101519.63;4916912;29;19922;-74
2022/10/04 00:57:34;;;;;;;;;;;;;;;9.04;81.96;101510.31;4915503;29;19922;-74
2022/10/04 01:00:39;;;;;;;;;;;;;;;8.91;82.88;101521.19;4917105;29;20395;-74
2022/10/04 01:03:43;;;;;;;;;;;;;;;8.86;83.19;101521.28;4916858;29;19946;-74
2022/10/04 01:06:47;;;;;;;;;;;;;;;9.04;82.75;101522.53;4917422;29;20336;-73
2022/10/04 01:09:56;;;;;;;;;;;;;;;8.98;83.23;101525.31;4917668;29;19997;-73
2022/10/04 01:13:04;;;;;;;;;;;;;;;8.87;83.18;101523.03;4916454;29;20013;-74
2022/10/04 01:16:18;;;;;;;;;;;;;;;8.83;83.25;101526.59;4916466;29;19974;-74
2022/10/04 01:19:25;;;;;;;;;;;;;;;8.83;83.71;101516.16;4916850;29;19922;-74
2022/10/04 01:22:36;;;;;;;;;;;;;;;8.89;83.51;101500.34;4916433;29;20343;-74
2022/10/04 01:25:44;;;;;;;;;;;;;;;8.92;83.37;101495.03;4904864;29;19922;-73
2022/10/04 01:28:47;;;;;;;;;;;;;;;9.03;82.74;101500.78;4916209;29;19970;-74
2022/10/04 01:31:52;;;;;;;;;;;;;;;9.30;81.43;101486.03;4916515;29;20025;-74
2022/10/04 01:34:57;;;;;;;;;;;;;;;9.17;82.45;101473.41;4916729;29;19922;-74
2022/10/04 01:38:02;;;;;;;;;;;;;;;9.04;83.60;101473.78;4916393;29;19965;-74
2022/10/04 01:41:07;;;;;;;;;;;;;;;9.02;83.69;101465.16;4916448;29;19922;-74
2022/10/04 01:44:21;;;;;;;;;;;;;;;9.03;83.76;101460.78;4916402;29;19922;-73
2022/10/04 01:47:30;;;;;;;;;;;;;;;9.00;83.46;101471.34;4916154;29;19921;-74
2022/10/04 01:50:37;;;;;;;;;;;;;;;8.95;84.04;101463.63;4915430;29;20420;-74
2022/10/04 01:54:01;;;;;;;;;;;;;;;9.04;84.35;101468.59;4919058;29;19921;-73
2022/10/04 01:57:05;;;;;;;;;;;;;;;8.91;85.78;101456.81;4922299;29;19921;-73
2022/10/04 02:00:11;;;;;;;;;;;;;;;8.78;86.92;101464.16;4921983;29;20075;-74
2022/10/04 02:03:21;;;;;;;;;;;;;;;8.71;87.41;101459.16;4922887;29;19922;-74
2022/10/04 02:06:24;;;;;;;;;;;;;;;8.86;87.07;101463.91;4922737;29;20174;-74
2022/10/04 02:09:31;;;;;;;;;;;;;;;8.88;86.81;101456.06;4922395;29;19926;-74
2022/10/04 02:12:34;;;;;;;;;;;;;;;8.80;86.67;101448.44;4921253;29;19921;-74
2022/10/04 02:15:40;;;;;;;;;;;;;;;8.85;86.50;101442.19;4921541;29;19971;-74
2022/10/04 02:18:44;;;;;;;;;;;;;;;8.90;85.12;101447.25;4921744;29;20454;-73
2022/10/04 02:21:48;;;;;;;;;;;;;;;8.83;84.26;101450.97;4921020;29;19943;-74
2022/10/04 02:24:53;;;;;;;;;;;;;;;9.04;82.82;101437.28;4921359;29;20445;-74
2022/10/04 02:27:56;;;;;;;;;;;;;;;9.01;83.63;101441.75;4921189;29;20339;-74
2022/10/04 02:34:22;;;;;;;;;;;;;;;8.97;84.29;101451.41;4921171;29;20302;-74
2022/10/04 02:37:27;;;;;;;;;;;;;;;8.86;85.13;101445.66;4921824;29;19922;-74
2022/10/04 02:40:34;;;;;;;;;;;;;;;8.80;85.58;101432.81;4902533;29;19930;-73
2022/10/04 02:43:41;;;;;;;;;;;;;;;8.75;85.73;101434.72;4902477;29;20041;-74
2022/10/04 02:46:51;;;;;;;;;;;;;;;8.85;84.78;101426.56;4883676;29;20534;-74
2022/10/04 02:49:57;;;;;;;;;;;;;;;8.81;84.65;101429.31;4884409;29;20051;-73
2022/10/04 02:53:18;;;;;;;;;;;;;;;8.85;84.57;101430.91;4894640;29;19971;-74
2022/10/04 02:56:21;;;;;;;;;;;;;;;8.83;84.81;101437.94;4884364;29;19922;-73
2022/10/04 02:59:26;;;;;;;;;;;;;;;8.75;85.09;101439.94;4884982;29;20034;-73
2022/10/04 03:02:30;;;;;;;;;;;;;;;8.78;85.35;101442.44;4884927;29;19923;-73
2022/10/04 03:05:34;;;;;;;;;;;;;;;8.76;85.30;101431.19;4881318;29;19975;-73
2022/10/04 03:08:41;;;;;;;;;;;;;;;8.80;84.64;101436.25;4880723;29;19962;-73
2022/10/04 03:11:46;;;;;;;;;;;;;;;8.84;84.42;101432.69;4881603;29;20035;-73
2022/10/04 03:14:52;;;;;;;;;;;;;;;8.75;85.49;101434.72;4881305;29;19923;-73
2022/10/04 03:17:55;;;;;;;;;;;;;;;8.79;84.75;101433.72;4879947;29;19971;-73
2022/10/04 03:21:01;;;;;;;;;;;;;;;8.77;84.81;101431.13;4879812;29;19923;-73
2022/10/04 03:24:05;;;;;;;;;;;;;;;8.77;85.45;101422.47;4880842;29;19922;-73
2022/10/04 03:27:13;;;;;;;;;;;;;;;8.78;85.57;101422.44;4880925;29;19950;-73
2022/10/04 03:30:20;;;;;;;;;;;;;;;8.82;85.09;101425.78;4880648;29;20284;-73
2022/10/04 03:33:24;;;;;;;;;;;;;;;8.80;85.08;101415.41;4880466;29;19970;-73
2022/10/04 03:36:27;;;;;;;;;;;;;;;8.72;85.95;101413.94;4881610;29;19923;-73
2022/10/04 03:39:32;;;;;;;;;;;;;;;8.70;86.15;101413.13;4910240;29;19966;-73
2022/10/04 03:42:36;;;;;;;;;;;;;;;8.71;86.08;101409.63;4917953;29;20331;-73
2022/10/04 03:45:41;;;;;;;;;;;;;;;8.70;85.74;101400.94;4918437;29;20066;-73
2022/10/04 03:48:48;;;;;;;;;;;;;;;8.64;85.21;101395.06;4928630;29;19922;-73
2022/10/04 03:51:52;;;;;;;;;;;;;;;8.60;85.67;101402.97;4918836;29;19975;-73
2022/10/04 03:54:58;;;;;;;;;;;;;;;8.75;85.62;101398.22;4918513;29;20389;-73
2022/10/04 03:58:03;;;;;;;;;;;;;;;8.82;85.15;101399.72;4918278;29;19922;-73
2022/10/04 04:01:09;;;;;;;;;;;;;;;8.97;84.37;101401.84;4917985;29;19922;-73
2022/10/04 04:04:19;;;;;;;;;;;;;;;8.81;85.03;101400.63;4918687;29;19922;-73
2022/10/04 04:07:40;;;;;;;;;;;;;;;8.85;85.23;101395.25;4917652;29;19992;-74
2022/10/04 04:10:51;;;;;;;;;;;;;;;8.80;84.93;101397.16;4928203;29;19926;-73
2022/10/04 04:13:59;;;;;;;;;;;;;;;9.03;83.62;101391.22;4928104;29;20178;-73
2022/10/04 04:17:34;;;;;;;;;;;;;;;8.86;84.10;101396.09;4896425;29;19930;-73
2022/10/04 04:20:40;;;;;;;;;;;;;;;8.74;84.22;101401.69;4902297;29;19922;-73
2022/10/04 04:23:48;;;;;;;;;;;;;;;8.68;84.49;101399.28;4914898;29;19921;-73
2022/10/04 04:27:00;;;;;;;;;;;;;;;8.72;84.10;101393.09;4914987;29;19925;-74
2022/10/04 04:30:07;;;;;;;;;;;;;;;8.69;84.08;101390.56;4914558;29;19979;-73
2022/10/04 04:33:18;;;;;;;;;;;;;;;8.94;83.75;101386.31;4913992;29;19977;-73
2022/10/04 04:36:21;;;;;;;;;;;;;;;8.85;84.10;101378.75;4913935;29;19987;-73
2022/10/04 04:39:47;;;;;;;;;;;;;;;8.80;83.97;101376.28;4913223;29;20319;-73
2022/10/04 04:42:56;;;;;;;;;;;;;;;8.74;84.38;101378.22;4913612;29;19922;-73
2022/10/04 04:46:01;;;;;;;;;;;;;;;8.81;84.04;101383.22;4913322;29;19967;-73
2022/10/04 04:49:05;;;;;;;;;;;;;;;8.71;84.37;101370.50;4894643;29;20312;-73
2022/10/04 04:52:15;;;;;;;;;;;;;;;8.61;85.19;101370.81;4913265;29;19930;-73
2022/10/04 04:55:20;;;;;;;;;;;;;;;8.80;83.92;101384.09;4913411;29;19921;-73
2022/10/04 04:58:26;;;;;;;;;;;;;;;8.82;83.37;101384.06;4912520;29;20242;-73
2022/10/04 05:01:41;;;;;;;;;;;;;;;8.73;83.52;101382.59;4912673;29;19925;-73
2022/10/04 05:04:45;;;;;;;;;;;;;;;8.67;83.88;101385.38;4912667;29;20006;-73
2022/10/04 05:08:12;;;;;;;;;;;;;;;8.58;84.90;101391.75;4891878;29;20390;-73
2022/10/04 05:11:20;;;;;;;;;;;;;;;8.57;85.34;101387.41;4893532;29;19925;-73
2022/10/04 05:14:23;;;;;;;;;;;;;;;8.79;84.19;101389.38;4909911;29;20282;-72
2022/10/04 05:17:29;;;;;;;;;;;;;;;8.63;84.22;101395.97;4913066;29;19922;-73
2022/10/04 05:20:33;;;;;;;;;;;;;;;8.81;83.41;101398.03;4909563;29;20406;-73
2022/10/04 05:23:37;;;;;;;;;;;;;;;8.68;84.19;101409.69;4912198;29;19921;-73
2022/10/04 05:26:41;;;;;;;;;;;;;;;8.60;84.60;101405.59;4911353;29;19922;-73
2022/10/04 05:29:57;;;;;;;;;;;;;;;8.50;84.71;101406.75;4912374;29;19977;-73
2022/10/04 05:33:02;;;;;;;;;;;;;;;8.55;84.58;101394.47;4912008;29;20382;-73
2022/10/04 05:36:12;;;;;;;;;;;;;;;8.69;83.81;101403.59;4912246;29;20336;-74
2022/10/04 05:39:22;;;;;;;;;;;;;;;8.75;83.29;101409.50;4911978;29;19926;-74
2022/10/04 05:42:37;;;;;;;;;;;;;;;8.70;83.36;101405.31;4899846;29;20397;-73
2022/10/04 05:45:41;;;;;;;;;;;;;;;8.48;84.79;101410.31;4912350;29;19969;-74
2022/10/04 05:48:45;;;;;;;;;;;;;;;8.47;84.53;101408.59;4912300;29;20128;-74
2022/10/04 05:51:52;;;;;;;;;;;;;;;8.50;85.05;101404.16;4912079;29;19926;-73
2022/10/04 05:55:14;;;;;;;;;;;;;;;8.52;85.16;101396.28;4911963;29;20290;-73
2022/10/04 05:58:24;;;;;;;;;;;;;;;8.56;84.99;101392.69;4893651;29;20430;-74
2022/10/04 06:01:30;;;;;;;;;;;;;;;8.53;84.87;101404.06;4893566;29;20225;-74
2022/10/04 06:04:58;;;;;;;;;;;;;;;8.49;85.20;101410.28;4905663;29;20009;-74
2022/10/04 06:08:08;;;;;;;;;;;;;;;8.37;85.92;101415.81;4911882;29;20392;-74
2022/10/04 06:11:12;;;;;;;;;;;;;;;8.39;86.04;101421.84;4911033;29;19925;-73
2022/10/04 06:14:33;;;;;;;;;;;;;;;8.37;86.39;101419.25;4912041;29;20074;-73
2022/10/04 06:17:49;;;;;;;;;;;;;;;8.38;86.41;101417.53;4901116;29;19925;-74
2022/10/04 06:21:06;;;;;;;;;;;;;;;8.40;86.33;101420.13;4912639;29;19922;-73
2022/10/04 06:24:14;;;;;;;;;;;;;;;8.45;85.74;101432.09;4911804;29;20454;-74
2022/10/04 06:27:21;;;;;;;;;;;;;;;8.49;85.61;101420.69;4912515;29;19922;-73
2022/10/04 06:30:24;;;;;;;;;;;;;;;8.69;84.09;101422.72;4912340;29;19930;-73
2022/10/04 06:33:28;;;;;;;;;;;;;;;8.52;84.68;101420.63;4910931;29;19922;-73
2022/10/04 06:36:40;;;;;;;;;;;;;;;8.64;84.99;101414.16;4902073;29;19922;-73
2022/10/04 06:39:56;;;;;;;;;;;;;;;8.68;84.48;101422.75;4905626;29;19931;-74
2022/10/04 06:42:59;;;;;;;;;;;;;;;8.65;85.30;101418.50;4898020;29;20010;-74
2022/10/04 06:46:12;;;;;;;;;;;;;;;8.47;85.84;101413.81;4896656;29;19950;-73
2022/10/04 06:49:25;;;;;;;;;;;;;;;8.62;85.30;101413.38;4896853;29;20286;-74
2022/10/04 06:52:28;;;;;;;;;;;;;;;8.65;85.43;101407.19;4897172;29;20378;-73
2022/10/04 06:55:36;;;;;;;;;;;;;;;8.60;85.53;101407.34;4897032;29;19922;-73
2022/10/04 06:58:45;;;;;;;;;;;;;;;8.75;85.13;101393.00;4896510;29;19930;-74
2022/10/04 07:01:50;;;;;;;;;;;;;;;8.76;85.16;101397.31;4896484;29;19966;-74
2022/10/04 07:05:14;;;;;;;;;;;;;;;8.69;85.35;101390.56;4897959;29;19922;-74
2022/10/04 07:08:32;;;;;;;;;;;;;;;8.78;84.85;101382.47;4897037;29;19922;-74
2022/10/04 07:11:36;;;;;;;;;;;;;;;8.96;84.22;101374.03;4897134;29;19926;-74
2022/10/04 07:14:44;;;;;;;;;;;;;;;9.08;82.88;101375.41;4897081;29;19922;-73
2022/10/04 07:17:48;;;;;;;;;;;;;;;9.10;82.15;101378.00;4896115;29;19962;-74
2022/10/04 07:20:58;;;;;;;;;;;;;;;9.11;82.23;101374.47;4897277;29;19970;-74
2022/10/04 07:24:02;;;;;;;;;;;;;;;9.14;82.26;101377.81;4898188;29;20390;-73
2022/10/04 07:27:08;;;;;;;;;;;;;;;8.95;83.66;101384.53;4877674;29;19922;-74
2022/10/04 07:30:18;;;;;;;;;;;;;;;8.97;84.11;101377.53;4878375;29;20031;-74
2022/10/04 07:33:22;;;;;;;;;;;;;;;9.08;84.31;101376.25;4879447;29;19923;-73
2022/10/04 07:36:46;;;;;;;;;;;;;;;8.98;83.86;101379.22;4904221;29;20398;-74
2022/10/04 07:40:05;;;;;;;;;;;;;;;9.08;84.04;101376.25;4920803;29;20010;-74
2022/10/04 07:43:21;;;;;;;;;;;;;;;8.96;84.29;101379.25;4913690;29;20385;-74
2022/10/04 07:46:44;;;;;;;;;;;;;;;9.01;84.70;101379.97;4915990;29;19979;-74
2022/10/04 07:49:52;;;;;;;;;;;;;;;9.14;84.46;101384.81;4913400;29;19929;-74
2022/10/04 07:53:14;;;;;;;;;;;;;;;9.29;83.91;101385.16;4914098;29;19922;-74
2022/10/04 07:56:35;;;;;;;;;;;;;;;9.37;83.90;101392.72;4914578;29;19973;-74
2022/10/04 07:59:59;;;;;;;;;;;;;;;9.55;82.14;101381.66;4895530;29;19914;-74
2022/10/04 08:03:19;;;;;;;;;;;;;;;9.44;81.97;101373.31;4895004;29;19938;-75
2022/10/04 08:06:32;;;;;;;;;;;;;;;9.45;82.42;101377.66;4914129;29;19922;-74
2022/10/04 08:09:41;;;;;;;;;;;;;;;9.46;83.20;101375.91;4914391;29;19962;-74
2022/10/04 08:12:54;;;;;;;;;;;;;;;9.47;83.45;101378.44;4914212;29;19921;-74
2022/10/04 08:16:15;;;;;;;;;;;;;;;9.55;82.95;101376.44;4913555;29;19921;-74
2022/10/04 08:19:26;;;;;;;;;;;;;;;9.64;83.30;101374.44;4912395;29;19925;-74
2022/10/04 08:22:32;;;;;;;;;;;;;;;9.41;85.83;101388.25;4914493;29;19922;-75
2022/10/04 08:25:39;;;;;;;;;;;;;;;9.37;84.18;101381.44;4913569;29;19971;-74
2022/10/04 08:32:19;;;;;;;;;;;;;;;9.73;83.80;101377.56;4915112;29;19926;-74
2022/10/04 08:35:36;;;;;;;;;;;;;;;9.70;83.79;101382.03;4893600;29;19922;-74
2022/10/04 08:38:55;;;;;;;;;;;;;;;9.70;83.95;101389.84;4894519;29;19925;-75
2022/10/04 08:42:26;;;;;;;;;;;;;;;9.93;83.61;101383.84;4898288;29;20424;-75
2022/10/04 08:45:31;;;;;;;;;;;;;;;9.44;87.80;101391.59;4905995;29;20381;-76
2022/10/04 08:48:45;;;;;;;;;;;;;;;9.34;87.87;101391.97;4912745;29;19967;-75
2022/10/04 08:52:07;;;;;;;;;;;;;;;9.21;88.21;101401.97;4903557;29;19970;-75
2022/10/04 08:55:38;;;;;;;;;;;;;;;9.49;90.35;101405.38;4917147;29;20347;-80
2022/10/04 08:58:59;;;;;;;;;;;;;;;9.52;87.40;101407.03;4919767;29;20430;-75
2022/10/04 09:02:06;;;;;;;;;;;;;;;9.06;89.81;101405.91;4922205;29;19914;-75
2022/10/04 09:05:13;;;;;;;;;;;;;;;9.10;90.05;101409.28;4939704;29;19992;-74
2022/10/04 09:08:39;;;;;;;;;;;;;;;9.19;89.39;101403.75;4923627;29;19970;-75
2022/10/04 09:12:00;;;;;;;;;;;;;;;9.40;87.99;101402.22;4913768;29;20602;-74
2022/10/04 09:15:20;;;;;;;;;;;;;;;9.50;86.94;101404.44;4914545;29;19978;-74
2022/10/04 09:18:44;;;;;;;;;;;;;;;9.67;85.99;101411.72;4913678;29;19922;-75
2022/10/04 09:21:57;;;;;;;;;;;;;;;9.85;85.90;101405.00;4914493;29;20049;-74
2022/10/04 09:25:31;;;;;;;;;;;;;;;10.04;84.49;101393.91;4913328;29;20919;-74
2022/10/04 09:28:37;;;;;;;;;;;;;;;10.15;83.89;101387.38;4866702;29;19930;-74
2022/10/04 09:31:52;;;;;;;;;;;;;;;10.24;82.55;101380.94;4912433;29;19926;-74
2022/10/04 09:35:08;;;;;;;;;;;;;;;10.31;82.82;101381.63;4913166;29;19971;-75
2022/10/04 09:38:31;;;;;;;;;;;;;;;10.41;83.22;101365.53;4914257;29;20002;-75
2022/10/04 09:41:41;;;;;;;;;;;;;;;10.51;82.16;101360.78;4913841;29;19921;-75
2022/10/04 09:45:05;;;;;;;;;;;;;;;10.53;81.96;101365.94;4912213;29;19922;-75
2022/10/04 09:48:27;;;;;;;;;;;;;;;10.53;82.12;101368.56;4912500;29;19991;-74
2022/10/04 09:51:50;;;;;;;;;;;;;;;10.70;81.63;101364.38;4911910;29;20072;-74
2022/10/04 09:55:04;;;;;;;;;;;;;;;10.88;80.78;101362.81;4911850;29;20256;-74
2022/10/04 09:58:13;;;;;;;;;;;;;;;10.85;81.25;101357.72;4912422;29;19921;-74
2022/10/04 10:01:24;;;;;;;;;;;;;;;10.85;81.37;101354.25;4912157;29;19922;-74
2022/10/04 10:04:58;;;;;;;;;;;;;;;10.76;81.64;101358.06;4912510;29;20394;-74
2022/10/04 10:08:17;;;;;;;;;;;;;;;11.01;81.84;101362.28;4912128;29;20010;-74
2022/10/04 10:15:06;;;;;;;;;;;;;;;10.92;82.49;101353.94;4913606;29;19946;-74
2022/10/04 10:18:14;;;;;;;;;;;;;;;11.24;81.44;101346.50;4917510;29;19918;-74
2022/10/04 10:21:27;;;;;;;;;;;;;;;11.24;81.15;101354.38;4916538;29;19921;-74
2022/10/04 10:24:51;;;;;;;;;;;;;;;11.42;81.22;101347.50;4915087;29;20287;-73
2022/10/04 10:28:10;;;;;;;;;;;;;;;11.56;80.47;101349.53;4914465;29;19926;-73
2022/10/04 10:31:14;;;;;;;;;;;;;;;11.30;80.87;101351.50;4915617;29;19974;-73
2022/10/04 10:34:24;;;;;;;;;;;;;;;11.16;82.22;101348.59;4915691;29;20026;-73
2022/10/04 10:37:45;;;;;;;;;;;;;;;11.26;82.67;101351.66;4915787;29;19942;-73
2022/10/04 10:40:52;;;;;;;;;;;;;;;11.27;83.39;101343.78;4896523;29;19983;-73
2022/10/04 10:44:06;;;;;;;;;;;;;;;11.18;84.27;101346.78;4878031;29;19971;-73
2022/10/04 10:47:21;;;;;;;;;;;;;;;11.34;84.75;101339.97;4865923;29;19923;-74
2022/10/04 10:50:33;;;;;;;;;;;;;;;11.46;84.84;101338.59;4877440;29;19989;-73
2022/10/04 10:53:47;;;;;;;;;;;;;;;11.42;83.98;101342.25;4877992;29;20347;-74
2022/10/04 10:57:09;;;;;;;;;;;;;;;11.58;84.97;101342.44;4887468;29;19923;-73
2022/10/04 11:00:13;;;;;;;;;;;;;;;11.56;84.38;101339.91;4895857;29;20133;-73
2022/10/04 11:03:20;;;;;;;;;;;;;;;11.75;86.53;101337.34;4881253;29;20291;-73
2022/10/04 11:06:42;;;;;;;;;;;;;;;11.90;85.25;101321.88;4896295;29;20053;-73
2022/10/04 11:10:05;;;;;;;;;;;;;;;11.99;86.05;101310.97;4895746;29;19928;-73
2022/10/04 11:13:25;;;;;;;;;;;;;;;12.16;85.30;101299.72;4896710;29;19990;-73
2022/10/04 11:16:33;;;;;;;;;;;;;;;12.23;85.36;101309.84;4895645;29;19922;-73
2022/10/04 11:19:56;;;;;;;;;;;;;;;12.38;84.47;101303.03;4896098;29;19970;-73
2022/10/04 11:23:01;;;;;;;;;;;;;;;12.50;84.20;101296.34;4884621;29;19925;-73
2022/10/04 11:26:28;;;;;;;;;;;;;;;12.62;84.80;101290.50;4888845;29;19974;-73
2022/10/04 11:29:34;;;;;;;;;;;;;;;12.75;84.07;101291.59;4896243;29;19971;-74
2022/10/04 11:32:50;;;;;;;;;;;;;;;12.88;83.55;101280.50;4895858;29;19938;-73
2022/10/04 11:36:04;;;;;;;;;;;;;;;13.01;82.91;101273.72;4883644;29;19923;-73
2022/10/04 11:39:16;;;;;;;;;;;;;;;13.04;83.60;101266.53;4905952;29;19926;-73
2022/10/04 11:42:20;;;;;;;;;;;;;;;13.07;82.73;101260.28;4913986;29;19969;-73
2022/10/04 11:45:54;;;;;;;;;;;;;;;13.11;82.99;101261.81;4913929;29;20335;-73
2022/10/04 11:49:04;;;;;;;;;;;;;;;13.17;82.82;101258.88;4914701;29;20166;-73
2022/10/04 11:52:19;;;;;;;;;;;;;;;13.32;82.77;101243.28;4914604;29;20334;-73
2022/10/04 11:55:26;;;;;;;;;;;;;;;13.53;83.31;101243.91;4914588;29;20291;-74
2022/10/04 11:58:34;;;;;;;;;;;;;;;13.79;82.90;101237.28;4914490;29;20374;-73
2022/10/04 12:01:48;;;;;;;;;;;;;;;13.91;82.32;101237.47;4913825;29;19922;-73
2022/10/04 12:04:55;;;;;;;;;;;;;;;14.08;82.08;101228.63;4914320;29;19922;-73
2022/10/04 12:08:08;;;;;;;;;;;;;;;14.33;80.94;101229.91;4914559;29;20346;-73
2022/10/04 12:11:24;;;;;;;;;;;;;;;14.58;79.23;101226.72;4913974;29;20292;-73
2022/10/04 12:14:30;;;;;;;;;;;;;;;14.71;77.94;101226.84;4914947;29;19950;-73
2022/10/04 12:17:49;;;;;;;;;;;;;;;14.87;77.76;101215.34;4915808;29;19926;-73
2022/10/04 12:21:05;;;;;;;;;;;;;;;15.05;76.58;101210.75;4914325;29;19918;-73
2022/10/04 12:24:27;;;;;;;;;;;;;;;15.36;76.76;101203.63;4913086;29;20270;-73
2022/10/04 12:27:44;;;;;;;;;;;;;;;16.04;74.82;101205.53;4913791;29;20123;-73
2022/10/04 12:31:10;;;;;;;;;;;;;;;18.54;65.76;101190.84;4913512;29;19925;-73
2022/10/04 12:34:35;;;;;;;;;;;;;;;23.60;49.83;101171.34;4916583;29;19922;-73
2022/10/04 12:37:59;;;;;;;;;;;;;;;26.74;41.13;101162.84;4897994;29;19944;-74
2022/10/04 12:41:20;;;;;;;;;;;;;;;28.14;37.20;101152.31;4889764;29;19923;-73
2022/10/04 12:44:30;;;;;;;;;;;;;;;29.13;35.72;101142.31;4904016;29;19967;-73
2022/10/04 12:47:53;;;;;;;;;;;;;;;29.83;33.69;101136.31;4917814;29;19937;-73
2022/10/04 12:51:16;;;;;;;;;;;;;;;30.80;32.11;101130.34;4914653;29;20127;-73
2022/10/04 12:54:33;;;;;;;;;;;;;;;29.48;33.87;101131.78;4916722;29;19925;-73
2022/10/04 12:57:53;;;;;;;;;;;;;;;30.97;31.59;101124.63;4914775;29;19967;-73
2022/10/04 13:01:09;;;;;;;;;;;;;;;31.58;30.21;101119.25;4894681;29;19926;-73
2022/10/04 13:04:19;;;;;;;;;;;;;;;31.39;30.35;101120.03;4894886;29;19970;-73
2022/10/04 13:07:35;;;;;;;;;;;;;;;31.15;31.19;101111.41;4897906;29;19969;-74
2022/10/04 13:10:46;;;;;;;;;;;;;;;29.47;33.62;101122.03;4896223;29;19926;-73
2022/10/04 13:13:57;;;;;;;;;;;;;;;28.50;34.76;101122.97;4896626;29;19978;-74
2022/10/04 13:17:08;;;;;;;;;;;;;;;28.15;35.74;101117.22;4894353;29;19966;-73
2022/10/04 13:20:25;;;;;;;;;;;;;;;27.63;36.85;101117.88;4914344;29;19922;-73
2022/10/04 13:23:46;;;;;;;;;;;;;;;26.42;39.29;101120.78;4914807;29;19962;-73
2022/10/04 13:26:58;;;;;;;;;;;;;;;24.80;42.44;101121.00;4915166;29;19937;-73
2022/10/04 13:30:12;;;;;;;;;;;;;;;23.28;46.81;101119.25;4923591;29;19926;-73
2022/10/04 13:33:32;;;;;;;;;;;;;;;21.82;49.80;101115.97;4911918;29;20051;-74
2022/10/04 13:36:36;;;;;;;;;;;;;;;20.95;52.06;101121.88;4912115;29;19943;-74
2022/10/04 13:39:46;;;;;;;;;;;;;;;20.19;56.20;101130.03;4927744;29;19925;-72
2022/10/04 13:42:52;;;;;;;;;;;;;;;19.61;58.39;101116.22;4930912;29;19922;-72
2022/10/04 13:46:08;;;;;;;;;;;;;;;19.57;60.31;101117.44;4931109;29;19922;-72
2022/10/04 13:49:27;;;;;;;;;;;;;;;19.23;60.47;101111.31;4929736;29;19960;-73
2022/10/04 13:56:35;;;;;;;;;;;;;;;19.22;61.16;101115.78;4931767;29;19966;-73
2022/10/04 13:59:43;;;;;;;;;;;;;;;19.10;60.80;101100.00;4920064;29;19933;-73
2022/10/04 14:03:05;;;;;;;;;;;;;;;18.85;61.38;101115.19;4923309;29;19926;-73
2022/10/04 14:06:29;;;;;;;;;;;;;;;18.70;62.09;101103.94;4914749;29;19926;-73
2022/10/04 14:09:33;;;;;;;;;;;;;;;18.65;63.42;101103.44;4913063;29;20020;-73
2022/10/04 14:12:58;;;;;;;;;;;;;;;18.49;63.85;101095.00;4911759;29;19922;-73
2022/10/04 14:16:17;;;;;;;;;;;;;;;18.73;61.08;101082.56;4914322;29;20394;-74
2022/10/04 14:19:26;;;;;;;;;;;;;;;18.70;57.46;101077.47;4920804;29;20343;-74
2022/10/04 14:22:43;;;;;;;;;;;;;;;18.42;60.25;101080.53;4932678;29;20037;-74
2022/10/04 14:25:53;;;;;;;;;;;;;;;18.35;58.65;101075.72;4930532;29;19921;-74
2022/10/04 14:29:10;;;;;;;;;;;;;;;18.51;58.00;101079.84;4906610;29;20010;-74
2022/10/04 14:32:27;;;;;;;;;;;;;;;18.67;49.57;101068.91;4913632;29;19988;-73
2022/10/04 14:35:30;;;;;;;;;;;;;;;18.80;54.43;101065.22;4912697;29;20355;-73
2022/10/04 14:38:46;;;;;;;;;;;;;;;18.92;51.89;101071.34;4911865;29;20022;-74
2022/10/04 14:42:13;;;;;;;;;;;;;;;19.11;50.68;101073.38;4911750;29;19926;-74
2022/10/04 14:45:43;;;;;;;;;;;;;;;19.22;50.43;101072.53;4911220;29;19981;-74
2022/10/04 14:48:59;;;;;;;;;;;;;;;19.09;53.02;101075.31;4904497;29;19921;-74
2022/10/04 14:52:15;;;;;;;;;;;;;;;19.04;53.80;101070.38;4910960;29;19926;-74
2022/10/04 14:55:40;;;;;;;;;;;;;;;18.83;56.61;101065.94;4913399;29;19942;-74
2022/10/04 14:58:47;;;;;;;;;;;;;;;18.85;57.31;101061.34;4924775;29;20377;-74
2022/10/04 15:02:18;;;;;;;;;;;;;;;18.87;54.00;101068.22;4928938;29;19922;-75
2022/10/04 15:05:43;;;;;;;;;;;;;;;19.36;47.43;101060.81;4925883;29;20016;-74
2022/10/04 15:08:57;;;;;;;;;;;;;;;19.60;51.88;101064.13;4925311;29;19922;-75
2022/10/04 15:12:16;;;;;;;;;;;;;;;19.65;55.08;101055.81;4923736;29;19943;-74
2022/10/04 15:15:23;;;;;;;;;;;;;;;19.94;54.13;101061.38;4920497;29;19961;-75
2022/10/04 15:18:46;;;;;;;;;;;;;;;19.99;54.89;101056.53;4916529;29;20355;-74
2022/10/04 15:21:49;;;;;;;;;;;;;;;19.52;55.47;101054.13;4914763;29;19942;-74
2022/10/04 15:24:53;;;;;;;;;;;;;;;18.58;59.11;101065.16;4913988;29;19961;-74
2022/10/04 15:27:58;;;;;;;;;;;;;;;18.01;60.81;101060.69;4914355;29;19926;-73
2022/10/04 15:31:12;;;;;;;;;;;;;;;17.69;60.82;101060.41;4903333;29;19974;-74
2022/10/04 15:34:32;;;;;;;;;;;;;;;17.17;64.53;101067.69;4915286;29;19922;-74
2022/10/04 15:37:50;;;;;;;;;;;;;;;16.86;65.52;101054.00;4895394;29;20343;-74
2022/10/04 15:41:13;;;;;;;;;;;;;;;16.56;67.07;101056.06;4896281;29;19987;-74
2022/10/04 15:44:19;;;;;;;;;;;;;;;16.36;68.61;101047.72;4916582;29;19943;-74
2022/10/04 15:47:22;;;;;;;;;;;;;;;16.24;68.97;101048.56;4916280;29;19931;-74
2022/10/04 15:50:45;;;;;;;;;;;;;;;16.14;69.25;101036.94;4912479;29;19970;-74
2022/10/04 15:53:48;;;;;;;;;;;;;;;16.10;69.17;101020.47;4913115;29;20002;-74
2022/10/04 15:56:55;;;;;;;;;;;;;;;16.10;70.23;101020.47;4913926;29;19961;-74
2022/10/04 16:00:12;;;;;;;;;;;;;;;15.98;70.63;101026.56;4912872;29;19943;-74
2022/10/04 16:03:15;;;;;;;;;;;;;;;16.01;70.38;101029.84;4913279;29;19942;-74
2022/10/04 16:06:26;;;;;;;;;;;;;;;15.84;71.07;101029.31;4912811;29;19926;-74
2022/10/04 16:09:40;;;;;;;;;;;;;;;15.75;71.13;101021.03;4911575;29;20370;-74
2022/10/04 16:12:50;;;;;;;;;;;;;;;15.59;72.88;101025.59;4911105;29;20442;-74
2022/10/04 16:16:13;;;;;;;;;;;;;;;15.59;72.18;101030.88;4912286;29;19978;-74
2022/10/04 16:19:29;;;;;;;;;;;;;;;15.14;74.80;101034.69;4915249;29;19970;-74
2022/10/04 16:22:34;;;;;;;;;;;;;;;15.25;73.08;101032.19;4910903;29;19926;-74
2022/10/04 16:25:37;;;;;;;;;;;;;;;15.06;73.41;101035.16;4912884;29;20386;-74
2022/10/04 16:28:44;;;;;;;;;;;;;;;15.03;74.85;101051.16;4913954;29;20658;-74
2022/10/04 16:31:54;;;;;;;;;;;;;;;15.03;75.09;101054.63;4918028;29;19926;-74
2022/10/04 16:34:58;;;;;;;;;;;;;;;14.98;75.30;101046.16;4912688;29;20427;-74
2022/10/04 16:38:11;;;;;;;;;;;;;;;14.72;77.04;101054.84;4914147;29;19926;-74
2022/10/04 16:41:27;;;;;;;;;;;;;;;14.71;77.40;101053.13;4920318;29;19930;-74
2022/10/04 16:44:34;;;;;;;;;;;;;;;14.61;77.18;101048.44;4923987;29;19985;-75
2022/10/04 16:47:47;;;;;;;;;;;;;;;14.60;77.47;101054.63;4924410;29;20334;-74
2022/10/04 16:51:09;;;;;;;;;;;;;;;14.39;78.22;101067.28;4923665;29;19926;-74